Time;durP1;ratioP1;P1;durP2;ratioP2;P2;SDS_P1;SDS_P2;PMS_P1;PMS_P2;Temp;Humidity;BMP_temperature;BMP_pressure;BME280_temperature;BME280_humidity;BME280_pressure;Samples;Min_cycle;Max_cycle;Signal;HPM_P1;HPM_P2
2023/09/03 00:00:29;;;;;;;8.98;6.63;;;;;;;21.97;47.89;95496.03;5091416;28;20111;-87
2023/09/03 00:02:54;;;;;;;7.85;6.88;;;;;;;21.94;47.74;95494.97;5090333;28;20028;-86
2023/09/03 00:05:20;;;;;;;7.47;6.68;;;;;;;21.93;47.90;95507.44;5091574;28;20027;-88
2023/09/03 00:07:45;;;;;;;7.40;6.45;;;;;;;21.92;47.96;95502.34;5081553;28;20119;-86
2023/09/03 00:10:11;;;;;;;7.63;6.80;;;;;;;21.93;48.19;95504.63;5090580;28;20040;-86
2023/09/03 00:12:36;;;;;;;7.57;6.28;;;;;;;21.92;47.89;95505.16;5090325;28;20028;-87
2023/09/03 00:15:02;;;;;;;8.23;7.38;;;;;;;21.94;48.21;95505.41;5091422;28;20012;-86
2023/09/03 00:17:28;;;;;;;7.60;6.80;;;;;;;21.88;47.91;95502.56;5090181;28;20797;-86
2023/09/03 00:19:53;;;;;;;7.32;6.35;;;;;;;21.91;48.30;95506.41;5090639;28;20032;-87
2023/09/03 00:22:19;;;;;;;9.23;6.80;;;;;;;21.87;48.17;95500.28;5091546;28;20909;-86
2023/09/03 00:24:44;;;;;;;7.57;6.75;;;;;;;21.86;47.98;95505.09;5095079;28;20036;-84
2023/09/03 00:27:09;;;;;;;7.88;6.60;;;;;;;21.83;48.56;95513.72;5094383;28;20086;-86
2023/09/03 00:29:36;;;;;;;9.18;6.45;;;;;;;21.80;48.62;95521.09;5109256;28;20484;-84
2023/09/03 00:32:02;;;;;;;8.60;6.22;;;;;;;21.83;48.35;95522.88;5096241;28;20107;-85
2023/09/03 00:34:27;;;;;;;7.30;6.60;;;;;;;21.77;48.48;95516.47;5091274;28;20482;-85
2023/09/03 00:36:53;;;;;;;6.78;6.07;;;;;;;21.68;48.56;95525.06;5093018;28;20035;-88
2023/09/03 00:39:18;;;;;;;7.10;6.28;;;;;;;21.70;48.53;95523.28;5090185;28;20035;-85
2023/09/03 00:41:45;;;;;;;10.15;6.55;;;;;;;21.63;48.54;95511.78;5090136;28;20028;-85
2023/09/03 00:44:10;;;;;;;8.57;6.65;;;;;;;21.71;48.70;95518.47;5090750;28;20024;-86
2023/09/03 00:46:36;;;;;;;10.40;7.25;;;;;;;21.66;48.64;95514.34;5089394;28;20074;-86
2023/09/03 00:49:01;;;;;;;7.82;6.82;;;;;;;21.69;48.51;95509.81;5072343;28;20028;-87
2023/09/03 00:51:27;;;;;;;7.47;6.78;;;;;;;21.72;48.43;95506.00;5089930;28;20049;-86
2023/09/03 00:53:54;;;;;;;8.23;6.72;;;;;;;21.72;48.61;95515.16;5090463;28;20394;-87
2023/09/03 00:56:20;;;;;;;9.05;6.93;;;;;;;21.61;48.80;95506.66;5089166;28;20024;-87
2023/09/03 00:58:45;;;;;;;9.50;7.55;;;;;;;21.61;48.77;95494.72;5090100;28;20020;-86
2023/09/03 01:01:11;;;;;;;9.95;7.35;;;;;;;21.59;49.11;95505.66;5090195;28;20119;-88
2023/09/03 01:03:36;;;;;;;8.75;7.10;;;;;;;21.56;48.79;95501.03;5071389;28;20131;-85
2023/09/03 01:06:02;;;;;;;8.15;7.03;;;;;;;21.51;48.91;95490.59;5090894;28;20055;-87
2023/09/03 01:08:28;;;;;;;9.20;7.15;;;;;;;21.48;49.56;95497.94;5088713;28;20649;-87
2023/09/03 01:11:17;;;;;;;7.93;6.88;;;;;;;21.49;49.62;95507.84;5090978;28;20103;-85
2023/09/03 01:13:42;;;;;;;7.57;6.78;;;;;;;21.43;49.58;95504.22;5072456;28;20512;-85
2023/09/03 01:16:16;;;;;;;10.50;6.80;;;;;;;21.35;49.84;95509.50;5090401;28;20099;-85
2023/09/03 01:18:42;;;;;;;9.20;6.75;;;;;;;21.34;50.21;95507.97;5089890;28;20028;-86
2023/09/03 01:21:25;;;;;;;8.35;7.55;;;;;;;21.30;50.08;95509.47;5072741;28;20028;-87
2023/09/03 01:23:56;;;;;;;11.35;7.20;;;;;;;21.26;50.24;95514.47;5091341;28;20497;-85
2023/09/03 01:26:58;;;;;;;9.60;7.90;;;;;;;21.24;50.42;95514.19;5089563;28;20046;-84
2023/09/03 01:29:24;;;;;;;8.63;6.85;;;;;;;21.18;50.58;95516.94;5089154;28;20028;-87
2023/09/03 01:31:50;;;;;;;8.30;7.50;;;;;;;21.15;50.77;95507.50;5072070;28;20024;-87
2023/09/03 01:34:16;;;;;;;9.40;7.03;;;;;;;21.12;50.61;95511.28;5086599;28;20028;-85
2023/09/03 01:36:41;;;;;;;9.90;8.10;;;;;;;21.06;50.71;95512.50;5089178;28;20028;-86
2023/09/03 01:39:07;;;;;;;8.82;7.13;;;;;;;21.06;50.64;95515.28;5069877;28;20143;-86
2023/09/03 01:41:34;;;;;;;8.40;7.22;;;;;;;21.05;50.99;95508.19;5089518;28;20088;-84
2023/09/03 01:43:59;;;;;;;8.30;7.28;;;;;;;21.02;51.07;95507.13;5069193;28;20189;-86
2023/09/03 01:46:43;;;;;;;9.70;7.90;;;;;;;20.98;51.13;95506.56;5068665;28;20530;-85
2023/09/03 01:49:18;;;;;;;9.18;7.70;;;;;;;20.99;51.04;95504.53;5051492;28;20574;-86
2023/09/03 01:52:14;;;;;;;10.65;7.80;;;;;;;20.95;51.05;95508.31;5053130;28;20031;-86
2023/09/03 01:54:47;;;;;;;10.02;7.18;;;;;;;20.91;51.28;95507.75;5089247;28;20024;-84
2023/09/03 01:57:18;;;;;;;8.50;7.30;;;;;;;20.86;51.13;95511.25;5071434;28;20031;-87
2023/09/03 01:59:53;;;;;;;9.55;7.68;;;;;;;20.86;51.14;95504.91;5070331;28;20464;-87
2023/09/03 02:02:20;;;;;;;10.27;7.38;;;;;;;20.82;51.55;95505.13;5088484;28;20020;-86
2023/09/03 02:04:45;;;;;;;11.02;7.88;;;;;;;20.73;51.52;95508.06;5068144;28;20028;-88
2023/09/03 02:07:11;;;;;;;8.52;7.15;;;;;;;20.75;51.43;95510.38;5071372;28;20028;-88
2023/09/03 02:09:36;;;;;;;8.48;7.53;;;;;;;20.67;51.32;95496.06;5087098;28;20028;-86
2023/09/03 02:12:02;;;;;;;10.05;7.50;;;;;;;20.69;51.68;95507.50;5088654;28;20111;-86
2023/09/03 02:14:28;;;;;;;9.13;7.15;;;;;;;20.59;51.68;95506.13;5088649;28;20452;-86
2023/09/03 02:16:53;;;;;;;8.88;7.45;;;;;;;20.54;51.66;95495.66;5088199;28;20035;-86
2023/09/03 02:19:19;;;;;;;8.18;7.13;;;;;;;20.49;51.96;95502.69;5088806;28;20028;-87
2023/09/03 02:21:45;;;;;;;9.30;7.30;;;;;;;20.51;51.80;95502.22;5087219;28;20082;-85
2023/09/03 02:24:10;;;;;;;9.52;7.28;;;;;;;20.49;51.79;95507.53;5070855;28;20052;-87
2023/09/03 02:26:42;;;;;;;8.35;7.18;;;;;;;20.47;52.05;95505.19;5087116;28;20024;-87
2023/09/03 02:29:08;;;;;;;11.13;7.43;;;;;;;20.43;51.95;95502.59;5088719;28;20482;-86
2023/09/03 02:31:34;;;;;;;8.30;7.38;;;;;;;20.41;52.28;95505.13;5086844;28;20031;-86
2023/09/03 02:33:59;;;;;;;8.70;6.88;;;;;;;20.38;52.18;95506.09;5087218;28;20101;-86
2023/09/03 02:36:24;;;;;;;10.15;7.05;;;;;;;20.33;52.21;95506.78;5088381;28;20020;-87
2023/09/03 02:39:06;;;;;;;8.77;7.30;;;;;;;20.36;52.34;95493.88;5087765;28;20048;-86
2023/09/03 02:41:31;;;;;;;8.82;7.47;;;;;;;20.33;52.46;95503.22;5089321;28;20024;-87
2023/09/03 02:43:58;;;;;;;8.93;7.32;;;;;;;20.21;52.91;95499.50;5088776;28;20169;-87
2023/09/03 02:46:24;;;;;;;9.80;7.47;;;;;;;20.20;52.97;95500.78;5088875;28;20402;-86
2023/09/03 02:48:50;;;;;;;10.40;7.68;;;;;;;20.18;52.77;95514.44;5086125;28;20439;-85
2023/09/03 02:51:15;;;;;;;10.63;7.55;;;;;;;20.14;53.08;95513.88;5087389;28;20047;-86
2023/09/03 02:53:42;;;;;;;8.13;7.20;;;;;;;20.12;52.82;95519.16;5087427;28;20475;-87
2023/09/03 02:56:08;;;;;;;10.23;7.45;;;;;;;20.07;52.92;95515.06;5069332;28;20050;-86
2023/09/03 02:58:33;;;;;;;8.45;7.22;;;;;;;20.01;53.40;95519.78;5088276;28;20107;-87
2023/09/03 03:01:06;;;;;;;8.27;7.05;;;;;;;19.99;53.19;95513.91;5086977;28;20031;-88
2023/09/03 03:03:31;;;;;;;7.28;6.57;;;;;;;20.00;52.88;95503.53;5087409;28;20039;-87
2023/09/03 03:05:57;;;;;;;10.57;7.10;;;;;;;19.94;53.24;95506.22;5087473;28;20024;-88
2023/09/03 03:08:22;;;;;;;9.48;7.70;;;;;;;19.89;53.20;95504.88;5088808;28;20105;-87
2023/09/03 03:10:48;;;;;;;8.65;7.25;;;;;;;19.87;53.21;95506.63;5086740;28;20515;-86
2023/09/03 03:13:13;;;;;;;8.65;7.20;;;;;;;19.85;53.46;95503.56;5092933;28;20779;-86
2023/09/03 03:15:38;;;;;;;9.63;7.55;;;;;;;19.76;53.31;95484.91;5088336;28;20016;-86
2023/09/03 03:18:04;;;;;;;8.88;7.60;;;;;;;19.81;52.94;95500.97;5086820;28;20066;-86
2023/09/03 03:20:29;;;;;;;8.85;7.32;;;;;;;19.71;52.77;95477.22;5088895;28;20030;-86
2023/09/03 03:22:55;;;;;;;10.10;7.97;;;;;;;19.70;53.11;95481.28;5086487;28;20040;-86
2023/09/03 03:25:21;;;;;;;9.43;7.88;;;;;;;19.65;53.07;95484.75;5087600;28;20044;-85
2023/09/03 03:27:46;;;;;;;10.70;8.02;;;;;;;19.63;53.47;95492.84;5086040;28;20042;-86
2023/09/03 03:30:11;;;;;;;11.35;7.75;;;;;;;19.55;53.43;95491.66;5087747;28;20132;-88
2023/09/03 03:32:37;;;;;;;9.13;7.35;;;;;;;19.54;53.59;95490.13;5085723;28;20032;-88
2023/09/03 03:35:02;;;;;;;10.55;8.20;;;;;;;19.50;53.75;95492.34;5086417;28;20220;-87
2023/09/03 03:37:28;;;;;;;11.02;7.72;;;;;;;19.48;53.52;95497.63;5086731;28;20036;-87
2023/09/03 03:39:54;;;;;;;8.45;7.40;;;;;;;19.46;53.97;95505.72;5086219;28;20020;-87
2023/09/03 03:42:19;;;;;;;9.88;8.02;;;;;;;19.45;53.68;95504.94;5088031;28;20501;-86
2023/09/03 03:44:45;;;;;;;9.32;7.57;;;;;;;19.45;53.95;95512.53;5086231;28;20028;-88
2023/09/03 03:47:11;;;;;;;11.50;7.88;;;;;;;19.44;54.02;95499.81;5087524;28;20120;-87
2023/09/03 03:49:36;;;;;;;10.38;6.97;;;;;;;19.38;54.27;95496.94;5087084;28;20442;-86
2023/09/03 03:52:02;;;;;;;12.15;7.97;;;;;;;19.39;54.14;95500.53;5087372;28;20027;-88
2023/09/03 03:54:27;;;;;;;11.23;8.07;;;;;;;19.32;54.31;95502.41;5087608;28;20558;-86
2023/09/03 03:56:52;;;;;;;13.10;7.78;;;;;;;19.33;54.19;95498.41;5085293;28;20103;-85
2023/09/03 03:59:18;;;;;;;11.52;7.28;;;;;;;19.30;54.73;95504.16;5058763;28;20567;-87
2023/09/03 04:01:44;;;;;;;9.48;8.25;;;;;;;19.27;54.32;95510.72;5085463;28;20058;-85
2023/09/03 04:04:09;;;;;;;13.65;7.78;;;;;;;19.32;54.51;95508.00;5092810;28;20027;-84
2023/09/03 04:06:35;;;;;;;9.45;7.70;;;;;;;19.23;54.27;95496.19;5099261;28;20065;-86
2023/09/03 04:09:00;;;;;;;10.23;8.55;;;;;;;19.22;54.66;95506.56;5109507;28;20083;-86
2023/09/03 04:11:25;;;;;;;13.90;8.65;;;;;;;19.20;54.30;95500.69;5107029;28;20016;-88
2023/09/03 04:13:51;;;;;;;12.68;8.13;;;;;;;19.23;54.65;95513.69;5099611;28;20024;-85
2023/09/03 04:16:18;;;;;;;11.15;7.95;;;;;;;19.20;54.47;95511.06;5089093;28;20060;-86
2023/09/03 04:18:44;;;;;;;11.88;8.10;;;;;;;19.22;54.34;95514.16;5085722;28;20024;-87
2023/09/03 04:21:10;;;;;;;12.57;8.15;;;;;;;19.18;54.24;95497.63;5087530;28;20061;-86
2023/09/03 04:23:35;;;;;;;15.77;8.30;;;;;;;19.09;54.46;95489.34;5085693;28;20047;-87
2023/09/03 04:26:01;;;;;;;11.85;7.68;;;;;;;19.14;54.54;95499.84;5086827;28;20024;-87
2023/09/03 04:28:26;;;;;;;12.98;7.60;;;;;;;19.19;54.30;95509.53;5087207;28;20233;-87
2023/09/03 04:30:53;;;;;;;11.07;7.55;;;;;;;19.14;54.44;95508.19;5089654;28;20026;-84
2023/09/03 04:33:19;;;;;;;10.32;7.75;;;;;;;19.14;54.40;95508.19;5090308;28;20032;-86
2023/09/03 04:35:45;;;;;;;11.93;8.77;;;;;;;19.10;54.50;95500.03;5089553;28;20032;-86
2023/09/03 04:38:10;;;;;;;10.90;8.13;;;;;;;19.12;54.39;95505.13;5072977;28;20101;-87
2023/09/03 04:40:36;;;;;;;9.90;8.38;;;;;;;19.15;54.49;95506.16;5089144;28;20029;-87
2023/09/03 04:43:03;;;;;;;10.48;8.02;;;;;;;19.11;54.74;95500.81;5090290;28;20024;-86
2023/09/03 04:45:28;;;;;;;10.02;7.75;;;;;;;19.12;54.93;95498.78;5088919;28;20513;-87
2023/09/03 04:47:55;;;;;;;11.00;7.82;;;;;;;19.17;54.83;95500.91;5088110;28;20028;-88
2023/09/03 04:50:21;;;;;;;11.65;7.85;;;;;;;19.15;54.77;95498.56;5089517;28;20085;-86
2023/09/03 04:52:48;;;;;;;13.57;8.95;;;;;;;19.20;54.65;95497.13;5089219;28;20024;-88
2023/09/03 04:55:14;;;;;;;9.52;7.60;;;;;;;19.21;54.80;95493.09;5089900;28;20017;-86
2023/09/03 04:57:39;;;;;;;9.68;8.32;;;;;;;19.18;55.09;95483.69;5089878;28;20035;-85
2023/09/03 05:00:05;;;;;;;10.98;8.65;;;;;;;19.26;54.99;95489.66;5090000;28;20669;-85
2023/09/03 05:02:31;;;;;;;11.23;8.05;;;;;;;19.29;55.12;95491.47;5088623;28;20038;-86
2023/09/03 05:04:58;;;;;;;12.95;8.25;;;;;;;19.31;55.13;95486.94;5090134;28;20491;-85
2023/09/03 05:07:23;;;;;;;9.63;8.00;;;;;;;19.31;55.06;95477.81;5069720;28;20037;-85
2023/09/03 05:09:52;;;;;;;11.18;8.27;;;;;;;19.37;54.63;95478.69;5060124;28;20024;-86
2023/09/03 05:12:17;;;;;;;12.00;8.73;;;;;;;19.44;54.21;95485.88;5090140;28;20185;-87
2023/09/03 05:14:43;;;;;;;9.15;8.25;;;;;;;19.48;54.40;95483.69;5089028;28;20498;-90
2023/09/03 05:17:08;;;;;;;10.13;8.23;;;;;;;19.49;54.44;95479.63;5088198;28;20024;-86
2023/09/03 05:19:34;;;;;;;11.95;8.70;;;;;;;19.35;54.43;95450.53;5089178;28;20103;-90
2023/09/03 05:21:59;;;;;;;11.32;9.07;;;;;;;19.56;54.27;95479.25;5090508;28;20035;-88
2023/09/03 05:24:24;;;;;;;11.40;9.80;;;;;;;19.53;54.04;95478.19;5088409;28;20051;-87
2023/09/03 05:26:50;;;;;;;10.52;8.68;;;;;;;19.47;54.28;95477.34;5090301;28;20470;-89
2023/09/03 05:29:15;;;;;;;11.00;8.68;;;;;;;19.47;54.08;95480.13;5071228;28;20123;-87
2023/09/03 05:31:41;;;;;;;9.93;8.60;;;;;;;19.47;54.07;95476.56;5090387;28;20035;-90
2023/09/03 05:34:06;;;;;;;11.75;7.90;;;;;;;19.52;53.91;95473.09;5090755;28;20028;-90
2023/09/03 05:36:32;;;;;;;10.95;8.27;;;;;;;19.59;53.81;95481.09;5091422;28;20073;-90
2023/09/03 05:38:58;;;;;;;10.40;7.32;;;;;;;19.54;53.99;95467.81;5097337;28;20020;-90
2023/09/03 05:41:24;;;;;;;10.23;7.90;;;;;;;19.62;54.17;95483.69;5095266;28;20024;-91
2023/09/03 05:43:53;;;;;;;12.27;8.48;;;;;;;19.66;53.60;95483.50;5095557;28;20036;-92
2023/09/03 05:46:19;;;;;;;8.98;7.75;;;;;;;19.70;53.94;95481.28;5075159;28;20103;-91
2023/09/03 05:48:44;;;;;;;8.25;7.35;;;;;;;19.78;52.99;95482.41;5088911;28;20060;-90
2023/09/03 05:51:13;;;;;;;9.38;7.20;;;;;;;19.82;53.22;95491.34;5071626;28;20039;-91
2023/09/03 05:53:38;;;;;;;8.65;7.60;;;;;;;19.89;53.04;95492.97;5086635;28;20061;-91
2023/09/03 05:56:08;;;;;;;8.38;7.47;;;;;;;19.91;52.82;95500.88;5069828;28;20108;-90
2023/09/03 05:58:34;;;;;;;9.55;7.82;;;;;;;19.98;52.60;95500.47;5068719;28;20033;-90
2023/09/03 06:01:03;;;;;;;10.18;7.82;;;;;;;19.97;53.29;95490.56;5070385;28;20493;-86
2023/09/03 06:03:28;;;;;;;9.77;7.78;;;;;;;20.10;52.84;95502.16;5087016;28;20020;-88
2023/09/03 06:05:54;;;;;;;10.15;8.65;;;;;;;20.11;52.24;95496.06;5089243;28;20700;-89
2023/09/03 06:08:19;;;;;;;8.90;7.10;;;;;;;20.12;52.43;95492.03;5088999;28;20079;-89
2023/09/03 06:10:48;;;;;;;9.50;7.82;;;;;;;20.20;52.24;95497.97;5089478;28;20402;-89
2023/09/03 06:13:13;;;;;;;9.48;7.78;;;;;;;20.23;52.33;95499.03;5089549;28;20073;-90
2023/09/03 06:15:38;;;;;;;9.55;7.45;;;;;;;20.32;51.86;95490.53;5089756;28;20030;-90
2023/09/03 06:18:04;;;;;;;11.40;8.38;;;;;;;20.39;51.77;95495.69;5088417;28;20024;-87
2023/09/03 06:20:31;;;;;;;10.15;7.72;;;;;;;20.37;51.70;95498.97;5086786;28;20388;-87
2023/09/03 06:22:57;;;;;;;7.60;6.72;;;;;;;20.36;51.63;95494.66;5088662;28;20031;-84
2023/09/03 06:25:22;;;;;;;9.38;7.40;;;;;;;20.47;51.91;95515.59;5087326;28;20127;-88
2023/09/03 06:27:47;;;;;;;8.75;7.63;;;;;;;20.53;51.37;95505.28;5088071;28;20020;-86
2023/09/03 06:30:13;;;;;;;10.60;7.40;;;;;;;20.63;51.35;95506.66;5087646;28;20550;-87
2023/09/03 06:32:38;;;;;;;9.20;7.85;;;;;;;20.71;51.13;95509.81;5088208;28;20016;-87
2023/09/03 06:35:04;;;;;;;9.18;7.43;;;;;;;20.74;51.09;95498.41;5087749;28;20034;-86
2023/09/03 06:37:30;;;;;;;11.00;7.30;;;;;;;20.82;50.96;95505.13;5087112;28;20024;-87
2023/09/03 06:39:55;;;;;;;8.10;7.13;;;;;;;20.89;50.64;95498.34;5088513;28;20457;-88
2023/09/03 06:42:21;;;;;;;8.45;7.60;;;;;;;20.96;50.93;95506.28;5086561;28;20035;-85
2023/09/03 06:44:46;;;;;;;14.30;7.13;;;;;;;21.04;50.64;95510.19;5087806;28;20051;-85
2023/09/03 06:47:12;;;;;;;9.18;6.60;;;;;;;21.11;50.60;95503.41;5068467;28;20024;-87
2023/09/03 06:49:37;;;;;;;10.07;6.80;;;;;;;21.16;50.10;95506.25;5087456;28;20028;-89
2023/09/03 06:52:03;;;;;;;13.15;8.80;;;;;;;21.30;49.52;95512.25;5086584;28;20121;-87
2023/09/03 06:54:28;;;;;;;10.48;7.55;;;;;;;21.41;49.75;95517.97;5093959;28;20034;-91
2023/09/03 06:56:54;;;;;;;10.05;7.10;;;;;;;21.48;49.43;95504.28;5100167;28;20050;-88
2023/09/03 06:59:23;;;;;;;8.73;7.00;;;;;;;21.60;49.16;95512.78;5091765;28;20032;-85
2023/09/03 07:01:51;;;;;;;7.82;7.03;;;;;;;21.71;48.67;95518.47;5088180;28;20089;-84
2023/09/03 07:04:17;;;;;;;7.43;6.57;;;;;;;21.81;48.59;95517.03;5079581;28;20473;-87
2023/09/03 07:06:42;;;;;;;8.07;6.90;;;;;;;21.91;48.03;95507.19;5070494;28;20024;-88
2023/09/03 07:09:10;;;;;;;7.68;6.88;;;;;;;21.96;48.06;95511.25;5087221;28;20164;-87
2023/09/03 07:11:36;;;;;;;8.68;7.18;;;;;;;22.05;47.98;95508.28;5069390;28;20040;-84
2023/09/03 07:14:01;;;;;;;9.48;6.70;;;;;;;22.15;47.82;95509.66;5082365;28;20031;-84
2023/09/03 07:16:26;;;;;;;9.00;7.65;;;;;;;22.26;47.36;95512.53;5067013;28;20534;-94
2023/09/03 07:18:52;;;;;;;9.10;7.07;;;;;;;22.36;47.28;95517.91;5068993;28;20021;-89
2023/09/03 07:21:19;;;;;;;12.93;6.97;;;;;;;22.41;47.27;95515.13;5067542;28;20025;-86
2023/09/03 07:23:44;;;;;;;7.63;6.53;;;;;;;22.52;46.88;95508.81;5082831;28;20095;-85
2023/09/03 07:26:10;;;;;;;8.98;6.78;;;;;;;22.67;46.97;95515.00;5086681;28;20043;-91
2023/09/03 07:28:36;;;;;;;8.25;7.10;;;;;;;22.77;45.87;95510.72;5088086;28;20420;-90
2023/09/03 07:31:02;;;;;;;8.32;7.30;;;;;;;22.90;45.73;95513.09;5086162;28;20020;-88
2023/09/03 07:33:27;;;;;;;11.18;7.75;;;;;;;23.00;45.74;95505.22;5086651;28;20027;-84
2023/09/03 07:35:53;;;;;;;10.00;7.20;;;;;;;23.10;45.02;95509.31;5088120;28;20028;-85
2023/09/03 07:38:18;;;;;;;8.40;6.55;;;;;;;23.23;45.39;95514.47;5087532;28;20024;-85
2023/09/03 07:40:44;;;;;;;7.72;6.15;;;;;;;23.30;45.24;95513.97;5096811;28;20079;-89
2023/09/03 07:43:09;;;;;;;8.57;6.03;;;;;;;23.36;45.15;95513.97;5108787;28;20020;-89
2023/09/03 07:45:34;;;;;;;8.85;5.72;;;;;;;23.50;44.97;95508.09;5108959;28;20076;-90
2023/09/03 07:48:00;;;;;;;8.65;5.78;;;;;;;23.59;44.69;95507.09;5097148;28;20032;-91
2023/09/03 07:50:28;;;;;;;7.13;6.28;;;;;;;23.76;44.39;95512.75;5089991;28;20031;-89
2023/09/03 07:52:53;;;;;;;8.48;6.15;;;;;;;23.89;43.16;95507.38;5088787;28;20028;-82
2023/09/03 07:55:18;;;;;;;6.25;5.65;;;;;;;23.96;43.48;95511.72;5086222;28;20026;-82
2023/09/03 07:57:44;;;;;;;7.50;6.00;;;;;;;24.02;43.17;95502.00;5086296;28;20414;-82
2023/09/03 08:00:10;;;;;;;8.15;6.10;;;;;;;24.17;42.88;95510.16;5085635;28;20085;-82
2023/09/03 08:02:35;;;;;;;7.05;5.68;;;;;;;24.29;42.75;95511.66;5086370;28;20062;-82
2023/09/03 08:05:00;;;;;;;6.95;5.20;;;;;;;24.40;43.03;95513.72;5088947;28;20028;-84
2023/09/03 08:07:26;;;;;;;8.45;5.57;;;;;;;24.49;42.38;95521.09;5078926;28;20043;-82
2023/09/03 08:09:52;;;;;;;6.55;5.85;;;;;;;24.74;41.51;95507.97;5069261;28;20356;-84
2023/09/03 08:12:17;;;;;;;6.32;5.60;;;;;;;24.78;41.53;95509.25;5051616;28;20140;-82
2023/09/03 08:14:44;;;;;;;6.43;5.63;;;;;;;24.95;41.21;95516.84;5068739;28;20116;-80
2023/09/03 08:17:09;;;;;;;5.32;4.82;;;;;;;25.09;40.75;95510.91;5068917;28;20016;-81
2023/09/03 08:19:35;;;;;;;6.85;4.55;;;;;;;25.20;40.28;95506.50;5069407;28;20024;-81
2023/09/03 08:22:00;;;;;;;7.53;5.28;;;;;;;25.38;39.48;95497.44;5068617;28;20020;-83
2023/09/03 08:24:27;;;;;;;7.00;5.32;;;;;;;25.48;39.25;95498.66;5069837;28;20156;-85
2023/09/03 08:26:52;;;;;;;7.78;5.28;;;;;;;25.59;38.26;95490.13;5072883;28;20103;-87
2023/09/03 08:29:18;;;;;;;5.13;4.63;;;;;;;25.76;36.88;95498.47;5069936;28;20105;-84
2023/09/03 08:31:43;;;;;;;5.30;4.53;;;;;;;25.86;36.38;95488.41;5069481;28;20513;-90
2023/09/03 08:34:09;;;;;;;6.00;4.40;;;;;;;26.03;35.78;95491.03;5069889;28;20025;-90
2023/09/03 08:36:35;;;;;;;5.30;4.80;;;;;;;26.18;35.87;95487.84;5070275;28;20025;-86
2023/09/03 08:39:01;;;;;;;4.80;4.30;;;;;;;26.37;35.51;95497.13;5051233;28;20384;-83
2023/09/03 08:41:27;;;;;;;6.93;4.97;;;;;;;26.59;35.53;95486.91;5069909;28;20371;-87
2023/09/03 08:44:00;;;;;;;7.22;5.32;;;;;;;26.78;34.81;95472.84;5068775;28;20037;-88
2023/09/03 08:46:30;;;;;;;7.15;5.13;;;;;;;27.11;32.66;95478.06;5056146;28;20170;-87
2023/09/03 08:48:57;;;;;;;9.20;4.53;;;;;;;27.37;32.05;95468.22;5070355;28;20141;-88
2023/09/03 08:51:22;;;;;;;7.30;4.50;;;;;;;27.64;31.12;95467.03;5051435;28;20025;-87
2023/09/03 08:53:50;;;;;;;5.35;4.72;;;;;;;27.87;31.50;95472.31;5051450;28;20074;-89
2023/09/03 08:56:16;;;;;;;6.40;4.85;;;;;;;28.09;30.48;95454.22;5070206;28;20070;-88
2023/09/03 08:58:42;;;;;;;5.70;4.45;;;;;;;28.33;29.88;95456.13;5051542;28;20024;-89
2023/09/03 09:01:09;;;;;;;4.57;4.18;;;;;;;28.53;29.56;95453.41;5069057;28;20475;-85
2023/09/03 09:03:36;;;;;;;4.28;3.80;;;;;;;28.75;29.18;95448.59;5034931;28;20039;-88
2023/09/03 09:06:02;;;;;;;4.45;4.00;;;;;;;29.02;29.78;95450.13;5068900;28;20028;-86
2023/09/03 09:08:28;;;;;;;6.03;4.07;;;;;;;29.33;28.76;95451.19;5069217;28;20055;-88
2023/09/03 09:10:54;;;;;;;5.63;4.07;;;;;;;29.58;28.61;95443.16;5069175;28;20056;-88
2023/09/03 09:13:22;;;;;;;7.05;3.92;;;;;;;29.84;27.88;95439.44;5051348;28;20103;-89
2023/09/03 09:15:47;;;;;;;4.30;3.90;;;;;;;30.08;27.63;95440.38;5068460;28;20029;-86
2023/09/03 09:18:14;;;;;;;7.40;4.85;;;;;;;30.29;27.94;95438.31;5066858;28;20043;-86
2023/09/03 09:20:40;;;;;;;6.90;4.78;;;;;;;30.51;26.38;95430.47;5067049;28;20025;-83
2023/09/03 09:23:09;;;;;;;5.40;4.20;;;;;;;30.81;26.43;95433.53;5067426;28;20020;-87
2023/09/03 09:25:35;;;;;;;5.90;4.40;;;;;;;31.05;26.04;95428.69;5049891;28;20043;-86
2023/09/03 09:28:10;;;;;;;5.32;4.75;;;;;;;31.29;26.09;95436.75;5067881;28;20024;-86
2023/09/03 09:30:36;;;;;;;5.05;4.30;;;;;;;31.52;25.45;95428.28;5067711;28;20028;-86
2023/09/03 09:33:07;;;;;;;6.00;4.80;;;;;;;31.64;24.13;95434.34;5068246;28;20029;-86
2023/09/03 09:35:34;;;;;;;5.80;5.18;;;;;;;31.65;24.13;95424.50;5067866;28;20168;-86
2023/09/03 09:38:06;;;;;;;5.55;4.35;;;;;;;31.84;23.13;95424.16;5067769;28;20028;-87
2023/09/03 09:40:34;;;;;;;5.03;3.60;;;;;;;32.06;23.42;95420.56;5067352;28;20033;-87
2023/09/03 09:43:01;;;;;;;5.13;4.38;;;;;;;32.23;23.46;95417.13;5068864;28;20171;-89
2023/09/03 09:45:26;;;;;;;5.43;4.55;;;;;;;32.48;22.75;95418.06;5072826;28;20028;-89
2023/09/03 09:48:06;;;;;;;6.50;4.45;;;;;;;32.75;22.44;95418.38;5071557;28;20024;-91
2023/09/03 09:50:35;;;;;;;5.75;5.05;;;;;;;32.89;22.38;95401.81;5070660;28;20031;-89
2023/09/03 09:53:02;;;;;;;11.63;7.32;;;;;;;33.10;22.52;95407.25;5051525;28;20029;-89
2023/09/03 09:55:29;;;;;;;7.90;5.57;;;;;;;33.40;22.68;95397.00;5068963;28;20031;-89
2023/09/03 09:57:55;;;;;;;7.22;4.85;;;;;;;33.52;22.09;95396.00;5068830;28;20027;-88
2023/09/03 10:00:34;;;;;;;6.78;4.53;;;;;;;33.76;21.83;95391.63;5067607;28;20037;-86
2023/09/03 10:03:00;;;;;;;6.95;5.15;;;;;;;33.83;21.31;95381.50;5067249;28;20017;-87
2023/09/03 10:05:26;;;;;;;5.25;3.92;;;;;;;33.97;21.14;95382.00;5050055;28;20047;-83
2023/09/03 10:07:52;;;;;;;5.72;4.00;;;;;;;34.23;21.35;95375.66;5050515;28;20479;-88
2023/09/03 10:10:18;;;;;;;5.50;4.70;;;;;;;34.54;20.50;95370.44;5068818;28;20031;-84
2023/09/03 10:12:44;;;;;;;8.98;5.30;;;;;;;34.85;20.51;95372.91;5050523;28;20028;-88
2023/09/03 10:15:12;;;;;;;5.90;4.20;;;;;;;35.22;19.82;95368.06;5066373;28;20040;-78
2023/09/03 10:17:40;;;;;;;4.65;4.03;;;;;;;35.44;18.55;95363.38;5066781;28;20073;-80
2023/09/03 10:20:10;;;;;;;4.85;3.28;;;;;;;35.70;18.51;95370.44;5047840;28;20060;-78
2023/09/03 10:22:39;;;;;;;4.50;4.07;;;;;;;35.80;18.09;95348.34;5048875;28;20025;-79
2023/09/03 10:25:08;;;;;;;7.85;3.60;;;;;;;36.00;17.61;95354.88;5065948;28;20040;-78
2023/09/03 10:27:37;;;;;;;5.30;4.18;;;;;;;36.03;17.82;95359.44;5065689;28;20400;-80
2023/09/03 10:30:06;;;;;;;4.55;4.05;;;;;;;36.28;17.77;95358.41;5048036;28;20048;-79
2023/09/03 10:32:32;;;;;;;5.07;3.55;;;;;;;36.63;16.70;95356.78;5047985;28;20086;-79
2023/09/03 10:35:09;;;;;;;4.82;3.47;;;;;;;37.00;16.30;95344.44;5048331;28;20142;-79
2023/09/03 10:37:36;;;;;;;5.97;3.63;;;;;;;37.19;16.53;95344.41;5066674;28;20028;-82
2023/09/03 10:40:24;;;;;;;4.38;3.28;;;;;;;37.61;15.56;95337.34;5066180;28;20036;-79
2023/09/03 10:42:51;;;;;;;5.80;3.70;;;;;;;38.20;15.34;95329.97;5066498;28;20444;-80
2023/09/03 10:45:18;;;;;;;4.38;3.30;;;;;;;38.81;14.95;95339.03;5047699;28;20020;-84
2023/09/03 10:48:04;;;;;;;6.32;3.70;;;;;;;39.47;14.45;95330.38;5048581;28;20107;-80
2023/09/03 10:50:50;;;;;;;4.05;3.15;;;;;;;40.11;14.02;95337.91;5066032;28;20021;-80
2023/09/03 10:53:44;;;;;;;3.88;2.97;;;;;;;40.94;13.40;95330.56;5047722;28;20032;-80
2023/09/03 10:56:13;;;;;;;3.80;2.97;;;;;;;41.65;12.69;95332.41;5044553;28;20025;-80
2023/09/03 10:58:59;;;;;;;3.42;3.13;;;;;;;42.38;12.04;95318.22;5065669;28;20107;-80
2023/09/03 11:01:32;;;;;;;3.70;3.13;;;;;;;43.26;11.33;95311.00;5065927;28;20020;-80
2023/09/03 11:04:03;;;;;;;5.85;3.38;;;;;;;43.97;11.26;95305.63;5065903;28;20165;-78
2023/09/03 11:06:32;;;;;;;4.05;3.65;;;;;;;44.40;10.87;95307.53;5066149;28;20024;-80
2023/09/03 11:09:00;;;;;;;5.25;3.65;;;;;;;44.78;10.89;95301.88;5066297;28;20085;-82
2023/09/03 11:11:28;;;;;;;3.70;3.00;;;;;;;45.20;10.12;95305.03;5065587;28;20040;-79
2023/09/03 11:13:55;;;;;;;3.92;3.25;;;;;;;45.27;9.75;95310.41;5049756;28;20029;-80
2023/09/03 11:16:31;;;;;;;3.53;2.70;;;;;;;45.60;9.82;95310.97;5070580;28;20032;-79
2023/09/03 11:18:57;;;;;;;3.53;2.75;;;;;;;46.10;9.20;95305.53;5069008;28;20028;-80
2023/09/03 11:21:24;;;;;;;3.67;2.92;;;;;;;46.13;9.43;95292.63;5065976;28;20056;-78
2023/09/03 11:24:16;;;;;;;3.35;2.58;;;;;;;44.98;10.17;95288.22;5048389;28;20655;-79
2023/09/03 11:26:42;;;;;;;4.35;3.25;;;;;;;44.12;10.55;95286.00;5066620;28;20029;-85
2023/09/03 11:29:24;;;;;;;3.90;3.42;;;;;;;43.43;11.54;95277.81;5031064;28;20109;-78
2023/09/03 11:31:51;;;;;;;4.25;3.20;;;;;;;42.95;11.68;95283.47;5066123;28;20016;-87